Time;durP1;ratioP1;P1;durP2;ratioP2;P2;SDS_P1;SDS_P2;PMS_P1;PMS_P2;Temp;Humidity;BMP_temperature;BMP_pressure;BME280_temperature;BME280_humidity;BME280_pressure;Samples;Min_cycle;Max_cycle;Signal;HPM_P1;HPM_P2
2021/10/11 00:00:23;;;;;;;33.30;21.83;;;;;;;9.72;89.55;101827.13;6191568;23;20354;-73
2021/10/11 00:02:49;;;;;;;32.78;22.05;;;;;;;9.71;89.79;101831.00;6218340;23;20008;-73
2021/10/11 00:05:14;;;;;;;33.45;22.00;;;;;;;9.70;89.95;101829.34;6217920;23;20080;-73
2021/10/11 00:07:41;;;;;;;35.83;23.58;;;;;;;9.69;90.09;101824.88;6191696;23;20020;-73
2021/10/11 00:10:07;;;;;;;37.92;24.20;;;;;;;9.70;90.00;101826.56;6191744;23;20326;-73
2021/10/11 00:12:32;;;;;;;37.58;25.13;;;;;;;9.67;90.34;101827.91;6191053;23;20059;-73
2021/10/11 00:14:58;;;;;;;36.95;23.83;;;;;;;9.67;89.97;101827.91;6218890;23;20016;-73
2021/10/11 00:17:23;;;;;;;37.35;24.60;;;;;;;9.65;90.16;101824.53;6193377;23;20004;-73
2021/10/11 00:19:50;;;;;;;34.15;23.38;;;;;;;9.61;90.45;101828.91;6168593;23;20005;-73
2021/10/11 00:22:20;;;;;;;36.97;24.45;;;;;;;9.59;90.29;101837.50;6193429;23;20440;-73
2021/10/11 00:24:45;;;;;;;36.25;25.40;;;;;;;9.58;90.36;101835.84;6219517;23;20095;-73
2021/10/11 00:27:11;;;;;;;41.30;25.60;;;;;;;9.60;90.57;101828.06;6219459;23;20035;-73
2021/10/11 00:29:36;;;;;;;34.15;21.90;;;;;;;9.62;90.13;101825.06;6193469;23;20330;-73
2021/10/11 00:32:03;;;;;;;37.28;24.13;;;;;;;9.62;89.77;101830.59;6168138;23;20020;-73
2021/10/11 00:34:31;;;;;;;36.42;24.20;;;;;;;9.59;89.61;101831.97;6193211;23;20011;-73
2021/10/11 00:36:57;;;;;;;35.90;23.63;;;;;;;9.58;89.42;101833.06;6219791;23;20004;-73
2021/10/11 00:39:22;;;;;;;33.85;22.55;;;;;;;9.54;89.82;101826.31;6219311;23;20543;-73
2021/10/11 00:41:48;;;;;;;34.28;22.67;;;;;;;9.56;89.91;101826.91;6219470;23;20060;-73
2021/10/11 00:44:13;;;;;;;37.28;24.67;;;;;;;9.53;90.11;101832.97;6219822;23;20012;-73
2021/10/11 00:46:39;;;;;;;35.90;24.00;;;;;;;9.52;89.78;101831.28;6219293;23;20426;-73
2021/10/11 00:49:04;;;;;;;34.55;23.15;;;;;;;9.49;89.92;101831.78;6220007;23;20001;-73
2021/10/11 00:51:30;;;;;;;37.33;23.10;;;;;;;9.48;89.72;101835.66;6219624;23;20015;-73
2021/10/11 00:53:55;;;;;;;31.35;22.20;;;;;;;9.48;89.44;101835.66;6192721;23;20015;-73
2021/10/11 00:56:21;;;;;;;34.42;22.65;;;;;;;9.43;89.70;101832.81;6219953;23;20009;-73
2021/10/11 00:58:46;;;;;;;35.97;23.77;;;;;;;9.43;89.60;101830.03;6219167;23;20009;-73
2021/10/11 01:01:12;;;;;;;32.58;22.83;;;;;;;9.38;89.53;101818.88;6218001;23;20019;-73
2021/10/11 01:03:37;;;;;;;33.55;21.58;;;;;;;9.37;89.67;101819.97;6219637;23;20017;-73
2021/10/11 01:06:04;;;;;;;34.67;22.77;;;;;;;9.33;89.89;101827.97;6219056;23;20035;-73
2021/10/11 01:08:29;;;;;;;34.65;21.42;;;;;;;9.31;89.67;101827.38;6219315;23;20349;-73
2021/10/11 01:10:55;;;;;;;32.83;21.73;;;;;;;9.31;89.75;101834.88;6193316;23;20050;-73
2021/10/11 01:13:21;;;;;;;35.47;22.63;;;;;;;9.28;90.00;101832.59;6192392;23;20010;-73
2021/10/11 01:15:46;;;;;;;35.28;22.85;;;;;;;9.26;89.98;101826.47;6219412;23;20008;-73
2021/10/11 01:18:12;;;;;;;36.50;25.38;;;;;;;9.24;90.17;101831.41;6219549;23;20009;-73
2021/10/11 01:20:37;;;;;;;34.55;23.50;;;;;;;9.22;90.15;101831.69;6219014;23;20013;-73
2021/10/11 01:23:03;;;;;;;33.33;22.25;;;;;;;9.20;89.98;101831.09;6219253;23;20087;-73
2021/10/11 01:25:28;;;;;;;34.33;21.80;;;;;;;9.19;89.69;101821.06;6217801;23;20017;-73
2021/10/11 01:27:54;;;;;;;36.03;22.27;;;;;;;9.20;89.70;101824.72;6218617;23;20063;-73
2021/10/11 01:30:19;;;;;;;36.22;24.35;;;;;;;9.19;90.04;101823.84;6217831;23;20005;-73
2021/10/11 01:32:45;;;;;;;34.90;23.58;;;;;;;9.16;90.16;101822.44;6219499;23;20133;-73
2021/10/11 01:35:11;;;;;;;36.60;24.27;;;;;;;9.15;90.04;101826.28;6192256;23;20012;-73
2021/10/11 01:37:36;;;;;;;37.05;24.05;;;;;;;9.14;90.07;101821.84;6167682;23;20020;-73
2021/10/11 01:40:07;;;;;;;34.85;22.98;;;;;;;9.13;89.72;101819.31;6219100;23;20430;-73
2021/10/11 01:42:32;;;;;;;37.75;24.80;;;;;;;9.12;90.02;101815.72;6192073;23;20000;-73
2021/10/11 01:44:58;;;;;;;37.28;23.85;;;;;;;9.10;90.06;101815.13;6219334;23;20067;-73
2021/10/11 01:47:24;;;;;;;35.80;22.67;;;;;;;9.09;89.82;101827.31;6219216;23;20426;-73
2021/10/11 01:49:49;;;;;;;35.55;23.35;;;;;;;9.09;90.03;101815.38;6167434;23;20008;-73
2021/10/11 01:52:14;;;;;;;34.17;22.40;;;;;;;9.10;89.97;101817.88;6219261;23;20008;-73
2021/10/11 01:54:40;;;;;;;35.20;23.02;;;;;;;9.08;90.01;101803.47;6218982;23;20050;-73
2021/10/11 01:57:05;;;;;;;38.40;23.67;;;;;;;9.07;89.98;101804.53;6192502;23;20013;-73
2021/10/11 01:59:31;;;;;;;35.85;23.25;;;;;;;9.06;89.93;101811.19;6167947;23;20012;-73
2021/10/11 02:01:56;;;;;;;38.70;23.65;;;;;;;9.05;90.05;101806.72;6192107;23;20008;-73
2021/10/11 02:04:22;;;;;;;36.50;22.67;;;;;;;9.04;90.14;101807.81;6167826;23;20008;-73
2021/10/11 02:06:47;;;;;;;37.35;24.15;;;;;;;9.04;90.36;101807.81;6217543;23;20009;-73
2021/10/11 02:09:13;;;;;;;37.33;23.75;;;;;;;9.03;90.21;101797.00;6218593;23;20047;-73
2021/10/11 02:11:38;;;;;;;38.53;24.90;;;;;;;9.03;90.25;101799.78;6218650;23;20009;-73
2021/10/11 02:14:04;;;;;;;36.97;23.65;;;;;;;9.02;90.08;101800.84;6219464;23;20028;-73
2021/10/11 02:16:29;;;;;;;36.92;23.27;;;;;;;8.98;90.31;101800.53;6218493;23;20330;-73
2021/10/11 02:18:55;;;;;;;35.95;23.20;;;;;;;9.01;90.20;101800.00;6218961;23;20008;-73
2021/10/11 02:21:20;;;;;;;39.35;24.55;;;;;;;9.01;90.31;101797.25;6192028;23;20031;-73
2021/10/11 02:23:46;;;;;;;38.25;24.20;;;;;;;8.99;90.34;101798.56;6216952;23;20051;-73
2021/10/11 02:26:11;;;;;;;38.03;23.52;;;;;;;8.97;90.09;101803.53;6218726;23;20039;-73
2021/10/11 02:28:37;;;;;;;37.28;24.08;;;;;;;8.94;90.16;101800.19;6218722;23;20004;-73
2021/10/11 02:31:02;;;;;;;36.42;23.05;;;;;;;8.94;90.17;101804.88;6191858;23;20384;-73
2021/10/11 02:33:28;;;;;;;36.65;23.75;;;;;;;8.91;90.03;101797.06;6217131;23;20381;-73
2021/10/11 02:35:53;;;;;;;36.60;23.13;;;;;;;8.91;90.14;101797.94;6218505;23;20445;-73
2021/10/11 02:38:19;;;;;;;34.38;23.10;;;;;;;8.90;90.25;101795.41;6218336;23;20008;-73
2021/10/11 02:40:44;;;;;;;34.53;22.60;;;;;;;8.90;90.37;101793.47;6192411;23;20615;-73
2021/10/11 02:43:10;;;;;;;39.55;24.67;;;;;;;8.89;90.38;101793.72;6191630;23;20008;-73
2021/10/11 02:45:36;;;;;;;36.42;22.98;;;;;;;8.89;90.53;101800.09;6218347;23;20441;-73
2021/10/11 02:48:05;;;;;;;38.00;23.38;;;;;;;8.89;90.70;101802.88;6218678;23;20418;-73
2021/10/11 02:50:30;;;;;;;34.60;22.30;;;;;;;8.89;90.74;101790.97;6216759;23;20015;-73
2021/10/11 02:52:56;;;;;;;37.80;22.90;;;;;;;8.90;90.57;101792.63;6218564;23;20016;-73
2021/10/11 02:55:21;;;;;;;34.92;22.35;;;;;;;8.90;90.57;101784.31;6191988;23;20013;-73
2021/10/11 02:57:47;;;;;;;36.53;23.67;;;;;;;8.92;90.77;101798.75;6217869;23;20009;-73
2021/10/11 03:00:13;;;;;;;39.80;24.52;;;;;;;8.94;90.77;101785.47;6218654;23;20012;-73
2021/10/11 03:02:38;;;;;;;35.08;23.10;;;;;;;8.94;90.94;101786.34;6192131;23;20035;-73
2021/10/11 03:05:04;;;;;;;35.88;22.95;;;;;;;8.94;90.92;101789.09;6218138;23;20456;-73
2021/10/11 03:07:29;;;;;;;35.15;22.33;;;;;;;8.95;90.65;101778.84;6218288;23;20000;-73
2021/10/11 03:09:55;;;;;;;34.13;21.92;;;;;;;8.96;90.50;101780.53;6192156;23;20008;-73
2021/10/11 03:12:20;;;;;;;35.42;22.70;;;;;;;8.97;90.76;101778.59;6217772;23;20008;-73
2021/10/11 03:14:46;;;;;;;33.67;22.13;;;;;;;9.01;91.01;101785.31;6218559;23;20426;-73
2021/10/11 03:17:11;;;;;;;31.58;21.15;;;;;;;8.99;91.04;101777.25;6217064;23;20005;-73
2021/10/11 03:19:37;;;;;;;32.55;21.55;;;;;;;9.03;91.10;101783.97;6217926;23;20005;-73
2021/10/11 03:22:02;;;;;;;35.75;22.05;;;;;;;9.02;91.52;101775.91;6218723;23;20008;-73
2021/10/11 03:24:28;;;;;;;32.95;22.10;;;;;;;9.05;91.47;101776.22;6216698;23;20012;-73
2021/10/11 03:26:53;;;;;;;35.53;23.25;;;;;;;9.06;91.66;101777.94;6191279;23;20016;-73
2021/10/11 03:29:19;;;;;;;35.38;22.15;;;;;;;9.09;91.75;101782.13;6192118;23;20008;-73
2021/10/11 03:31:45;;;;;;;37.30;22.75;;;;;;;9.11;91.67;101774.38;6191647;23;20005;-73
2021/10/11 03:34:12;;;;;;;41.60;25.90;;;;;;;9.11;92.18;101775.25;6218079;23;20080;-73
2021/10/11 03:36:38;;;;;;;35.75;23.02;;;;;;;9.15;91.75;101776.41;6218408;23;20009;-73
2021/10/11 03:39:05;;;;;;;36.42;23.58;;;;;;;9.16;92.01;101783.63;6218006;23;20012;-73
2021/10/11 03:41:32;;;;;;;37.20;23.98;;;;;;;9.18;91.94;101783.38;6217988;23;20009;-73
2021/10/11 03:43:58;;;;;;;40.50;25.42;;;;;;;9.21;92.24;101793.13;6218620;23;20408;-73
2021/10/11 03:46:23;;;;;;;38.20;23.35;;;;;;;9.20;91.82;101780.34;6218009;23;20008;-73
2021/10/11 03:48:48;;;;;;;35.03;22.38;;;;;;;9.23;91.21;101780.69;6219550;23;20008;-73
2021/10/11 03:51:14;;;;;;;37.03;22.52;;;;;;;9.22;91.69;101790.09;6220420;23;20016;-73
2021/10/11 03:53:39;;;;;;;41.28;25.00;;;;;;;9.23;92.67;101786.22;6219915;23;20492;-73
2021/10/11 03:56:05;;;;;;;37.58;24.23;;;;;;;9.24;92.08;101795.38;6193908;23;20013;-73
2021/10/11 03:58:30;;;;;;;35.00;23.42;;;;;;;9.24;92.25;101798.16;6219889;23;20066;-74
2021/10/11 04:00:56;;;;;;;37.78;23.95;;;;;;;9.23;91.99;101796.47;6219929;23;20008;-74
2021/10/11 04:03:21;;;;;;;34.80;23.23;;;;;;;9.25;92.43;101794.28;6220153;23;20009;-74
2021/10/11 04:05:47;;;;;;;32.58;21.40;;;;;;;9.26;92.04;101793.19;6219856;23;20028;-74
2021/10/11 04:08:14;;;;;;;32.63;21.52;;;;;;;9.24;92.39;101796.22;6219968;23;20032;-74
2021/10/11 04:13:32;;;;;;;34.33;22.20;;;;;;;9.25;92.14;101797.03;6173128;23;20017;-74
2021/10/11 04:15:57;;;;;;;34.47;21.90;;;;;;;9.24;91.73;101804.53;6219847;23;20004;-74
2021/10/11 04:18:23;;;;;;;35.10;22.00;;;;;;;9.22;91.89;101803.09;6218581;23;20008;-74
2021/10/11 04:20:48;;;;;;;33.35;21.55;;;;;;;9.21;91.59;101806.97;6193223;22;20012;-74
2021/10/11 04:23:14;;;;;;;34.13;21.83;;;;;;;9.16;91.58;101807.72;6219421;23;20365;-74
2021/10/11 04:25:39;;;;;;;34.63;22.33;;;;;;;9.20;91.62;101806.13;6219851;23;20083;-74
2021/10/11 04:28:05;;;;;;;34.25;21.88;;;;;;;9.15;91.44;101797.75;6219513;23;20009;-74
2021/10/11 04:30:30;;;;;;;33.67;21.48;;;;;;;9.14;91.46;101801.63;6219817;23;20005;-74
2021/10/11 04:32:56;;;;;;;32.42;21.15;;;;;;;9.12;91.68;101804.63;6193173;23;20013;-74
2021/10/11 04:35:22;;;;;;;31.58;21.10;;;;;;;9.12;91.44;101793.53;6220031;23;20016;-74
2021/10/11 04:37:50;;;;;;;35.17;20.77;;;;;;;9.10;91.58;101800.41;6219335;23;20008;-74
2021/10/11 04:40:16;;;;;;;27.90;19.08;;;;;;;9.10;91.58;101800.41;6219943;23;20017;-74
2021/10/11 04:42:42;;;;;;;30.38;19.58;;;;;;;9.07;91.46;101798.16;6219459;23;20004;-74
2021/10/11 04:45:07;;;;;;;27.38;18.70;;;;;;;9.03;91.28;101800.59;6219560;23;20005;-73
2021/10/11 04:47:33;;;;;;;29.13;19.02;;;;;;;9.03;91.33;101789.53;6193569;23;20027;-74
2021/10/11 04:49:58;;;;;;;27.33;18.15;;;;;;;9.02;91.49;101793.38;6219609;23;20001;-74
2021/10/11 04:52:24;;;;;;;27.08;18.38;;;;;;;8.97;91.57;101793.31;6192752;23;20013;-73
2021/10/11 04:54:49;;;;;;;27.98;19.05;;;;;;;8.97;91.53;101796.06;6219906;23;20012;-73
2021/10/11 04:57:15;;;;;;;28.13;19.15;;;;;;;8.93;91.73;101801.25;6192827;23;20005;-74
2021/10/11 04:59:40;;;;;;;25.98;17.45;;;;;;;8.91;91.61;101794.28;6219069;23;20060;-74
2021/10/11 05:02:06;;;;;;;27.50;18.00;;;;;;;8.92;91.40;101799.59;6219593;23;20016;-74
2021/10/11 05:04:31;;;;;;;28.58;18.48;;;;;;;8.88;91.80;101803.09;6219424;23;20019;-74
2021/10/11 05:06:57;;;;;;;27.17;17.90;;;;;;;8.84;91.70;101799.19;6219451;23;20312;-74
2021/10/11 05:09:22;;;;;;;27.90;18.48;;;;;;;8.82;92.08;101801.34;6219784;23;20013;-76
2021/10/11 05:11:48;;;;;;;27.88;17.92;;;;;;;8.83;91.68;101801.09;6192137;23;20012;-75
2021/10/11 05:14:13;;;;;;;28.02;18.20;;;;;;;8.82;91.50;101804.13;6219597;23;20004;-75
2021/10/11 05:16:39;;;;;;;27.10;17.80;;;;;;;8.81;91.37;101805.22;6219587;23;20012;-75
2021/10/11 05:19:04;;;;;;;27.17;16.95;;;;;;;8.79;91.28;101805.47;6218987;23;20004;-74
2021/10/11 05:21:31;;;;;;;28.23;17.85;;;;;;;8.81;91.40;101802.44;6219456;23;20036;-74
2021/10/11 05:23:57;;;;;;;28.52;17.90;;;;;;;8.75;91.66;101808.97;6217793;23;20012;-73
2021/10/11 05:26:23;;;;;;;27.35;17.90;;;;;;;8.73;91.49;101806.47;6218483;23;20319;-73
2021/10/11 05:28:48;;;;;;;30.30;18.95;;;;;;;8.76;91.84;101816.22;6192920;23;20004;-74
2021/10/11 05:31:14;;;;;;;28.88;18.60;;;;;;;8.77;91.94;101812.34;6219241;23;20011;-74
2021/10/11 05:33:39;;;;;;;29.50;19.17;;;;;;;8.76;92.35;101808.72;6218989;23;20450;-74
2021/10/11 05:36:05;;;;;;;29.40;17.73;;;;;;;8.75;92.18;101814.50;6219362;23;20012;-73
2021/10/11 05:38:31;;;;;;;29.08;18.52;;;;;;;8.77;92.42;101812.34;6218981;23;20009;-73
2021/10/11 05:40:57;;;;;;;30.65;19.25;;;;;;;8.83;92.87;101814.09;6192440;23;20015;-73
2021/10/11 05:43:22;;;;;;;28.50;17.95;;;;;;;8.87;92.72;101815.28;6219053;23;20012;-74
2021/10/11 05:45:48;;;;;;;30.17;19.13;;;;;;;8.85;93.52;101809.16;6219105;23;20008;-74
2021/10/11 05:48:14;;;;;;;27.15;17.67;;;;;;;8.89;93.35;101811.19;6192396;23;20000;-74
2021/10/11 05:50:39;;;;;;;29.35;19.08;;;;;;;8.92;93.60;101816.22;6192330;23;20009;-74
2021/10/11 05:53:05;;;;;;;32.05;20.20;;;;;;;8.96;93.24;101824.84;6219116;23;20009;-74
2021/10/11 05:55:31;;;;;;;26.58;18.45;;;;;;;8.97;93.64;101823.78;6219054;23;20089;-74
2021/10/11 05:57:57;;;;;;;27.98;18.15;;;;;;;9.01;93.90;101824.94;6217352;23;20015;-74
2021/10/11 06:00:23;;;;;;;28.65;18.13;;;;;;;9.05;93.43;101826.09;6167440;23;20012;-74
2021/10/11 06:02:49;;;;;;;27.58;17.30;;;;;;;9.06;93.34;101818.66;6218692;23;20334;-74
2021/10/11 06:05:14;;;;;;;27.13;17.05;;;;;;;9.10;93.45;101828.13;6219344;23;20008;-73
2021/10/11 06:07:40;;;;;;;27.08;18.33;;;;;;;9.12;93.22;101829.56;6218954;23;20426;-73
2021/10/11 06:10:05;;;;;;;26.55;17.20;;;;;;;9.15;93.34;101828.22;6217415;23;20426;-73
2021/10/11 06:12:31;;;;;;;26.52;17.45;;;;;;;9.17;93.30;101824.09;6192449;23;20005;-72
2021/10/11 06:14:58;;;;;;;25.55;16.13;;;;;;;9.21;92.69;101829.16;6218731;23;20005;-72
2021/10/11 06:17:23;;;;;;;25.27;16.88;;;;;;;9.26;93.04;101832.00;6218542;23;20005;-72
2021/10/11 06:19:49;;;;;;;27.13;17.08;;;;;;;9.28;92.69;101835.38;6219124;23;20448;-72
2021/10/11 06:22:14;;;;;;;25.13;17.23;;;;;;;9.29;93.03;101839.81;6192041;23;20016;-72
2021/10/11 06:24:40;;;;;;;28.10;18.27;;;;;;;9.35;93.38;101841.56;6218644;23;20021;-70
2021/10/11 06:27:05;;;;;;;28.55;19.02;;;;;;;9.38;92.98;101844.66;6218761;23;20491;-69
2021/10/11 06:29:31;;;;;;;27.02;17.50;;;;;;;9.39;93.82;101843.59;6218470;23;19997;-70
2021/10/11 06:31:56;;;;;;;26.73;17.92;;;;;;;9.42;93.50;101841.38;6192068;23;20016;-69
2021/10/11 06:34:22;;;;;;;26.55;16.88;;;;;;;9.45;93.37;101840.91;6192562;23;20012;-69
2021/10/11 06:36:48;;;;;;;26.88;17.08;;;;;;;9.48;94.05;101846.78;6191953;23;20009;-69
2021/10/11 06:39:13;;;;;;;29.08;18.73;;;;;;;9.50;93.48;101844.59;6142617;23;20012;-69
2021/10/11 06:41:39;;;;;;;31.42;19.13;;;;;;;9.54;94.50;101844.91;6216968;23;20008;-70
2021/10/11 06:44:04;;;;;;;27.50;17.92;;;;;;;9.55;93.71;101841.88;6191607;23;20001;-69
2021/10/11 06:46:30;;;;;;;27.63;17.70;;;;;;;9.58;94.20;101846.94;6192143;23;20095;-69
2021/10/11 06:48:55;;;;;;;29.95;19.08;;;;;;;9.61;94.43;101846.41;6167382;23;20004;-69
2021/10/11 06:51:21;;;;;;;27.45;17.42;;;;;;;9.66;93.95;101851.19;6167322;23;20024;-69
2021/10/11 06:53:46;;;;;;;28.30;19.35;;;;;;;9.68;95.06;101842.63;6192631;23;20063;-69
2021/10/11 06:56:12;;;;;;;31.17;21.38;;;;;;;9.72;97.27;101852.09;6166755;23;20449;-69
2021/10/11 06:58:37;;;;;;;31.30;20.30;;;;;;;9.73;96.61;101848.25;6167172;23;20008;-69
2021/10/11 07:01:03;;;;;;;34.65;22.42;;;;;;;9.77;98.01;101864.09;6192599;23;20005;-69
2021/10/11 07:03:30;;;;;;;46.47;27.73;;;;;;;9.82;100.00;101871.66;6142226;23;20392;-69
2021/10/11 07:06:03;;;;;;;38.92;24.42;;;;;;;9.85;100.00;101863.66;6167338;23;20074;-70
2021/10/11 07:08:28;;;;;;;38.13;23.05;;;;;;;9.89;100.00;101866.78;6193868;23;20043;-70
2021/10/11 07:10:54;;;;;;;34.33;21.98;;;;;;;9.92;100.00;101869.03;6191677;23;20013;-70
2021/10/11 07:13:21;;;;;;;38.10;24.50;;;;;;;9.95;100.00;101868.53;6192069;23;20028;-69
2021/10/11 07:15:46;;;;;;;45.88;28.98;;;;;;;10.01;100.00;101866.66;6192020;23;20016;-70
2021/10/11 07:18:12;;;;;;;41.10;26.25;;;;;;;10.06;100.00;101877.84;6191607;23;20418;-69
2021/10/11 07:20:42;;;;;;;35.15;23.30;;;;;;;10.09;100.00;101873.72;6191987;23;20012;-69
2021/10/11 07:23:08;;;;;;;44.13;27.73;;;;;;;10.16;100.00;101879.88;6169795;23;20023;-69
2021/10/11 07:25:34;;;;;;;37.40;23.92;;;;;;;10.19;100.00;101888.53;6168507;23;20013;-69
2021/10/11 07:28:00;;;;;;;29.20;20.45;;;;;;;10.22;100.00;101884.41;6194109;23;20013;-69
2021/10/11 07:30:25;;;;;;;35.70;23.65;;;;;;;10.28;100.00;101894.53;6169112;23;20013;-70
2021/10/11 07:32:51;;;;;;;30.77;20.27;;;;;;;10.33;100.00;101889.00;6193693;23;20031;-69
2021/10/11 07:35:16;;;;;;;36.08;22.95;;;;;;;10.38;100.00;101894.63;6169531;23;20329;-69
2021/10/11 07:37:42;;;;;;;41.05;25.30;;;;;;;10.44;100.00;101901.94;6193742;23;20032;-70
2021/10/11 07:40:08;;;;;;;37.35;23.75;;;;;;;10.48;100.00;101903.09;6193573;23;20039;-70
2021/10/11 07:42:33;;;;;;;30.83;19.58;;;;;;;10.52;100.00;101901.47;6144375;23;20016;-69
2021/10/11 07:44:59;;;;;;;27.38;18.33;;;;;;;10.58;99.14;101905.16;6168663;23;20012;-70
2021/10/11 07:47:24;;;;;;;27.10;17.70;;;;;;;10.64;97.93;101904.13;6193874;23;20311;-69
2021/10/11 07:49:50;;;;;;;30.27;19.25;;;;;;;10.72;100.00;101916.69;6193854;23;20012;-69
2021/10/11 07:52:15;;;;;;;36.60;23.35;;;;;;;10.81;100.00;101922.63;6193329;23;20013;-69
2021/10/11 07:54:41;;;;;;;36.45;21.75;;;;;;;10.86;100.00;101909.63;6193678;23;20016;-70
2021/10/11 07:57:06;;;;;;;32.67;21.60;;;;;;;10.92;100.00;101911.38;6193587;23;20012;-70
2021/10/11 07:59:32;;;;;;;31.75;21.02;;;;;;;11.01;100.00;101925.63;6168584;23;20008;-70
2021/10/11 08:01:57;;;;;;;41.17;26.02;;;;;;;11.10;100.00;101926.00;6193706;23;20009;-70
2021/10/11 08:04:23;;;;;;;43.75;26.02;;;;;;;11.21;100.00;101918.59;6168569;23;20001;-70
2021/10/11 08:06:48;;;;;;;52.58;29.42;;;;;;;11.31;100.00;101924.22;6193229;23;20005;-70
2021/10/11 08:09:14;;;;;;;48.72;28.02;;;;;;;11.39;100.00;101926.53;6193801;23;20011;-69
2021/10/11 08:11:42;;;;;;;49.80;28.38;;;;;;;11.50;100.00;101922.72;6168178;23;20039;-70
2021/10/11 08:14:07;;;;;;;49.08;28.48;;;;;;;11.60;100.00;101928.38;6193911;23;20401;-70
2021/10/11 08:16:33;;;;;;;59.60;33.60;;;;;;;11.74;100.00;101917.63;6193834;23;20044;-70
2021/10/11 08:18:58;;;;;;;55.45;32.15;;;;;;;11.83;100.00;101920.75;6168260;23;20036;-69
2021/10/11 08:21:24;;;;;;;60.38;33.30;;;;;;;11.94;100.00;101916.13;6193339;23;20012;-70
2021/10/11 08:23:53;;;;;;;65.18;36.30;;;;;;;12.06;100.00;101916.72;6169204;23;20028;-70
2021/10/11 08:26:18;;;;;;;65.95;35.17;;;;;;;12.18;100.00;101922.09;6217668;23;20503;-70
2021/10/11 08:28:44;;;;;;;59.58;33.40;;;;;;;12.25;100.00;101920.72;6193602;23;20008;-69
2021/10/11 08:31:09;;;;;;;55.63;32.78;;;;;;;12.34;100.00;101926.66;6168710;23;20016;-69
2021/10/11 08:33:35;;;;;;;62.13;35.20;;;;;;;12.45;100.00;101933.06;6217442;23;20009;-70
2021/10/11 08:36:01;;;;;;;57.63;33.65;;;;;;;12.56;100.00;101923.66;6193429;23;20009;-69
2021/10/11 08:38:27;;;;;;;59.33;33.22;;;;;;;12.69;100.00;101931.50;6143879;23;20016;-69
2021/10/11 08:40:52;;;;;;;54.30;32.03;;;;;;;12.79;100.00;101927.94;6192964;23;20015;-69
2021/10/11 08:43:18;;;;;;;49.78;31.85;;;;;;;12.87;100.00;101927.41;6168552;23;20005;-69
2021/10/11 08:45:47;;;;;;;57.90;32.60;;;;;;;12.94;100.00;101930.72;6193090;23;20004;-69
2021/10/11 08:48:13;;;;;;;55.95;31.40;;;;;;;12.97;100.00;101934.94;6144218;23;20008;-69
2021/10/11 08:50:38;;;;;;;48.15;30.60;;;;;;;13.04;100.00;101929.06;6193401;23;20008;-69
2021/10/11 08:53:04;;;;;;;47.10;27.98;;;;;;;13.08;100.00;101930.22;6168005;23;20012;-69
2021/10/11 08:55:29;;;;;;;47.72;28.63;;;;;;;13.13;100.00;101931.06;6193193;23;20378;-69
2021/10/11 08:58:02;;;;;;;48.15;28.25;;;;;;;13.21;100.00;101923.28;6168406;23;20019;-69
2021/10/11 09:00:31;;;;;;;;;;;;;;;13.28;100.00;101930.25;6143673;23;20016;-69
2021/10/11 09:02:57;;;;;;;53.20;30.67;;;;;;;13.34;100.00;101939.47;6192963;23;19914;-70
2021/10/11 09:05:32;;;;;;;53.85;30.48;;;;;;;13.41;100.00;101932.50;6193326;23;20015;-69
2021/10/11 09:08:02;;;;;;;52.95;30.35;;;;;;;13.48;100.00;101929.41;6169116;23;20008;-69
2021/10/11 09:10:29;;;;;;;46.72;29.70;;;;;;;13.53;100.00;101934.19;6192985;23;20055;-69
2021/10/11 09:12:54;;;;;;;46.22;29.77;;;;;;;13.55;100.00;101932.78;6168072;23;20012;-69
2021/10/11 09:15:20;;;;;;;47.47;28.48;;;;;;;13.59;100.00;101930.25;6143012;23;20009;-70
2021/10/11 09:17:50;;;;;;;48.40;30.02;;;;;;;13.64;100.00;101928.31;6168207;23;20012;-69
2021/10/11 09:20:21;;;;;;;41.83;27.80;;;;;;;13.70;100.00;101936.69;6193722;23;20008;-69
2021/10/11 09:22:48;;;;;;;43.05;28.83;;;;;;;13.75;100.00;101933.88;6192707;23;20038;-70
2021/10/11 09:25:14;;;;;;;38.92;26.85;;;;;;;13.78;100.00;101936.13;6192881;23;20028;-69
2021/10/11 09:27:50;;;;;;;38.70;25.23;;;;;;;13.81;100.00;101933.59;6142925;23;20008;-69
2021/10/11 09:30:26;;;;;;;33.20;24.95;;;;;;;13.84;100.00;101943.38;6192923;23;20418;-69
2021/10/11 09:33:07;;;;;;;34.53;23.30;;;;;;;13.85;100.00;101934.72;6192746;23;20009;-69
2021/10/11 09:35:32;;;;;;;35.83;24.02;;;;;;;13.85;100.00;101942.25;6167943;23;20016;-69
2021/10/11 09:37:58;;;;;;;34.53;23.45;;;;;;;13.84;100.00;101932.19;6192382;23;20004;-69
2021/10/11 09:40:25;;;;;;;37.10;22.70;;;;;;;13.89;100.00;101936.94;6192715;23;20009;-69
2021/10/11 09:42:51;;;;;;;31.70;22.27;;;;;;;13.89;100.00;101937.78;6193074;23;20012;-69
2021/10/11 09:45:24;;;;;;;32.50;22.45;;;;;;;13.90;100.00;101942.25;6192512;23;20054;-69
2021/10/11 09:47:50;;;;;;;34.40;22.50;;;;;;;13.96;100.00;101935.53;6218079;23;20074;-69
2021/10/11 09:50:17;;;;;;;31.70;22.10;;;;;;;13.96;100.00;101935.53;6192865;23;20027;-69
2021/10/11 09:52:43;;;;;;;37.95;23.70;;;;;;;14.00;100.00;101925.47;6167328;23;20004;-69
2021/10/11 09:55:09;;;;;;;31.55;21.85;;;;;;;14.12;100.00;101921.53;6217952;23;20008;-69
2021/10/11 09:57:35;;;;;;;27.83;20.08;;;;;;;14.27;100.00;101918.69;6167274;23;20004;-69
2021/10/11 10:00:07;;;;;;;28.35;19.88;;;;;;;14.40;100.00;101926.47;6192078;23;20008;-70
2021/10/11 10:02:35;;;;;;;24.77;17.90;;;;;;;14.51;100.00;101925.31;6168156;23;20485;-69
2021/10/11 10:05:01;;;;;;;29.35;18.70;;;;;;;14.65;100.00;101928.31;6192620;23;20036;-69
2021/10/11 10:07:27;;;;;;;27.35;18.67;;;;;;;14.75;100.00;101933.03;6217161;23;20016;-69
2021/10/11 10:09:53;;;;;;;26.13;17.08;;;;;;;14.86;100.00;101926.28;6167968;23;20013;-69
2021/10/11 10:12:18;;;;;;;25.92;19.15;;;;;;;14.94;100.00;101933.22;6191667;23;20063;-69
2021/10/11 10:14:44;;;;;;;22.48;16.05;;;;;;;15.01;99.28;101928.13;6167817;23;20035;-69
2021/10/11 10:17:09;;;;;;;22.30;15.35;;;;;;;15.11;100.00;101928.06;6167825;23;20445;-70
2021/10/11 10:19:36;;;;;;;21.13;14.40;;;;;;;15.20;100.00;101928.28;6192163;23;20084;-70
2021/10/11 10:22:15;;;;;;;20.70;14.50;;;;;;;15.27;100.00;101925.19;6167517;23;20005;-69
2021/10/11 10:24:40;;;;;;;23.90;15.23;;;;;;;15.29;96.58;101926.53;6142906;23;20020;-69
2021/10/11 10:27:10;;;;;;;20.23;14.00;;;;;;;15.39;97.88;101929.25;6167284;23;20012;-70
2021/10/11 10:29:44;;;;;;;19.00;13.25;;;;;;;15.48;97.47;101928.63;6192115;23;20051;-70
2021/10/11 10:32:10;;;;;;;18.38;13.23;;;;;;;15.61;96.48;101923.19;6192619;23;20408;-70
2021/10/11 10:34:35;;;;;;;22.55;12.80;;;;;;;15.69;94.42;101927.38;6167081;23;20008;-70
2021/10/11 10:37:08;;;;;;;19.15;11.95;;;;;;;15.72;92.60;101923.97;6192232;23;20084;-70
2021/10/11 10:39:48;;;;;;;;;;;;;;;15.76;91.02;101927.00;6193792;23;20013;-70
2021/10/11 10:42:24;;;;;;;18.25;12.00;;;;;;;15.88;92.12;101933.06;6191543;23;19903;-69
2021/10/11 10:44:50;;;;;;;17.80;12.73;;;;;;;15.83;90.82;101928.34;6167512;23;20338;-70
2021/10/11 10:47:15;;;;;;;20.40;12.50;;;;;;;15.90;90.81;101924.34;6217080;23;20012;-70
2021/10/11 10:49:47;;;;;;;14.00;10.98;;;;;;;15.94;91.33;101925.44;6192174;23;20434;-70
2021/10/11 10:52:15;;;;;;;14.25;11.00;;;;;;;15.96;90.89;101923.16;6166961;23;20012;-71
2021/10/11 10:54:42;;;;;;;15.02;9.90;;;;;;;16.03;91.12;101918.06;6192555;23;20011;-68
2021/10/11 10:57:08;;;;;;;19.23;10.60;;;;;;;16.12;91.37;101909.81;6191443;23;20013;-69
2021/10/11 10:59:34;;;;;;;16.20;10.43;;;;;;;16.25;91.84;101917.53;6166379;23;20009;-70
2021/10/11 11:02:07;;;;;;;14.65;8.15;;;;;;;16.34;90.02;101912.94;6167295;23;20009;-72
2021/10/11 11:04:33;;;;;;;13.25;8.32;;;;;;;16.42;88.05;101911.44;6167801;23;20448;-72
2021/10/11 11:07:04;;;;;;;13.13;8.50;;;;;;;16.48;85.56;101907.44;6191506;23;20095;-72
2021/10/11 11:09:43;;;;;;;13.02;6.63;;;;;;;16.57;83.26;101908.41;6219065;23;20004;-72